createdAt,value
2022-08-21T00:00:44.188Z,0.00
2022-08-21T00:01:43.120Z,0.00
2022-08-21T00:02:43.115Z,0.00
2022-08-21T00:03:42.101Z,0.00
2022-08-21T00:04:56.914Z,0.00
2022-08-21T00:05:43.088Z,0.00
2022-08-21T00:06:42.098Z,0.00
2022-08-21T00:07:42.082Z,0.00
2022-08-21T00:08:42.074Z,0.00
2022-08-21T00:09:42.059Z,0.00
2022-08-21T00:10:42.081Z,0.00
2022-08-21T00:11:42.048Z,0.00
2022-08-21T00:12:42.043Z,0.00
2022-08-21T00:13:42.033Z,0.00
2022-08-21T00:14:42.024Z,0.00
2022-08-21T00:15:42.038Z,0.00
2022-08-21T00:16:42.005Z,0.00
2022-08-21T00:17:42.003Z,0.00
2022-08-21T00:18:41.993Z,0.00
2022-08-21T00:19:41.980Z,0.00
2022-08-21T00:20:42.004Z,0.00
2022-08-21T00:21:44.454Z,0.00
2022-08-21T00:22:41.962Z,0.00
2022-08-21T00:23:41.954Z,0.00
2022-08-21T00:24:41.940Z,0.00
2022-08-21T00:25:41.963Z,0.00
2022-08-21T00:26:41.931Z,0.00
2022-08-21T00:27:41.926Z,0.00
2022-08-21T00:28:41.910Z,0.00
2022-08-21T00:29:41.903Z,0.00
2022-08-21T00:30:41.922Z,0.00
2022-08-21T00:31:41.886Z,0.00
2022-08-21T00:32:41.878Z,0.00
2022-08-21T00:33:41.868Z,0.00
2022-08-21T00:34:41.870Z,0.00
2022-08-21T00:35:41.888Z,0.00
2022-08-21T00:36:41.842Z,0.00
2022-08-21T00:37:41.840Z,0.00
2022-08-21T00:38:41.831Z,0.00
2022-08-21T00:39:41.915Z,0.00
2022-08-21T00:40:41.810Z,0.00
2022-08-21T00:41:41.809Z,0.00
2022-08-21T00:42:41.802Z,0.00
2022-08-21T00:43:41.797Z,0.00
2022-08-21T00:44:41.810Z,0.00
2022-08-21T00:45:41.777Z,0.00
2022-08-21T00:46:41.773Z,0.00
2022-08-21T00:47:41.763Z,0.00
2022-08-21T00:48:41.759Z,0.00
2022-08-21T00:49:41.766Z,0.00
2022-08-21T00:50:41.741Z,0.00
2022-08-21T00:51:41.734Z,0.00
2022-08-21T00:52:41.733Z,0.00
2022-08-21T00:53:41.717Z,0.00
2022-08-21T00:54:43.182Z,0.00
2022-08-21T00:55:41.699Z,0.00
2022-08-21T00:56:41.695Z,0.00
2022-08-21T00:57:41.682Z,0.00
2022-08-21T00:58:41.678Z,0.00
2022-08-21T00:59:41.689Z,0.00
2022-08-21T01:00:41.696Z,0.00
2022-08-21T01:01:41.651Z,0.00
2022-08-21T01:02:41.646Z,0.00
2022-08-21T01:03:44.118Z,0.00
2022-08-21T01:04:41.665Z,0.00
2022-08-21T01:05:41.622Z,0.00
2022-08-21T01:06:41.618Z,0.00
2022-08-21T01:07:41.607Z,0.00
2022-08-21T01:08:46.688Z,0.00
2022-08-21T01:09:42.608Z,0.00
2022-08-21T01:10:41.584Z,0.00
2022-08-21T01:11:41.573Z,0.00
2022-08-21T01:12:41.565Z,0.00
2022-08-21T01:13:41.562Z,0.00
2022-08-21T01:14:41.575Z,0.00
2022-08-21T01:15:41.548Z,0.00
2022-08-21T01:16:41.540Z,0.00
2022-08-21T01:17:41.524Z,0.00
2022-08-21T01:18:41.513Z,0.00
2022-08-21T01:19:41.539Z,0.00
2022-08-21T01:20:41.509Z,0.00
2022-08-21T01:21:41.494Z,0.00
2022-08-21T01:22:41.485Z,0.00
2022-08-21T01:23:41.480Z,0.00
2022-08-21T01:24:41.504Z,0.00
2022-08-21T01:25:41.458Z,0.00
2022-08-21T01:26:41.466Z,0.00
2022-08-21T01:27:41.446Z,0.00
2022-08-21T01:28:41.448Z,0.00
2022-08-21T01:29:41.428Z,0.00
2022-08-21T01:30:41.447Z,0.00
2022-08-21T01:31:41.416Z,0.00
2022-08-21T01:32:41.404Z,0.00
2022-08-21T01:33:41.398Z,0.00
2022-08-21T01:34:41.389Z,0.00
2022-08-21T01:35:41.408Z,0.00
2022-08-21T01:36:41.378Z,0.00
2022-08-21T01:37:41.362Z,0.00
2022-08-21T01:38:41.360Z,0.00
2022-08-21T01:39:41.386Z,0.00
2022-08-21T01:40:41.366Z,0.00
2022-08-21T01:41:41.330Z,0.00
2022-08-21T01:42:41.321Z,0.00
2022-08-21T01:43:41.319Z,0.00
2022-08-21T01:44:41.308Z,0.00
2022-08-21T01:45:41.328Z,0.00
2022-08-21T01:46:41.295Z,0.00
2022-08-21T01:47:41.288Z,0.00
2022-08-21T01:48:41.273Z,0.00
2022-08-21T01:49:41.265Z,0.00
2022-08-21T01:50:41.284Z,0.00
2022-08-21T01:51:41.253Z,0.00
2022-08-21T01:52:41.237Z,0.00
2022-08-21T01:53:41.242Z,0.00
2022-08-21T01:54:41.227Z,0.00
2022-08-21T01:55:41.242Z,0.00
2022-08-21T01:56:41.216Z,0.00
2022-08-21T01:57:41.202Z,0.00
2022-08-21T01:58:41.188Z,0.00
2022-08-21T01:59:42.187Z,0.00
2022-08-21T02:00:41.381Z,0.00
2022-08-21T02:01:41.177Z,0.00
2022-08-21T02:02:41.163Z,0.00
2022-08-21T02:03:41.155Z,0.00
2022-08-21T02:04:41.146Z,0.00
2022-08-21T02:05:41.161Z,0.00
2022-08-21T02:06:41.129Z,0.00
2022-08-21T02:07:41.119Z,0.00
2022-08-21T02:08:41.128Z,0.00
2022-08-21T02:09:41.112Z,0.00
2022-08-21T02:10:41.124Z,0.00
2022-08-21T02:11:42.093Z,0.00
2022-08-21T02:12:41.088Z,0.00
2022-08-21T02:13:41.072Z,0.00
2022-08-21T02:14:41.074Z,0.00
2022-08-21T02:15:41.089Z,0.00
2022-08-21T02:16:41.056Z,0.00
2022-08-21T02:17:41.051Z,0.00
2022-08-21T02:18:41.038Z,0.00
2022-08-21T02:19:41.086Z,0.00
2022-08-21T02:20:41.045Z,0.00
2022-08-21T02:21:41.013Z,0.00
2022-08-21T02:22:41.000Z,0.00
2022-08-21T02:23:40.994Z,0.00
2022-08-21T02:24:50.563Z,0.00
2022-08-21T02:25:42.013Z,0.00
2022-08-21T02:26:40.976Z,0.00
2022-08-21T02:27:40.967Z,0.00
2022-08-21T02:28:40.959Z,0.00
2022-08-21T02:29:40.948Z,0.00
2022-08-21T02:30:40.975Z,0.00
2022-08-21T02:31:40.932Z,0.00
2022-08-21T02:32:40.925Z,0.00
2022-08-21T02:33:40.917Z,0.00
2022-08-21T02:34:40.912Z,0.00
2022-08-21T02:35:40.925Z,0.00
2022-08-21T02:36:40.892Z,0.00
2022-08-21T02:37:40.881Z,0.00
2022-08-21T02:38:40.873Z,0.00
2022-08-21T02:39:40.901Z,0.00
2022-08-21T02:40:43.903Z,0.00
2022-08-21T02:41:42.849Z,0.00
2022-08-21T02:42:40.843Z,0.00
2022-08-21T02:43:40.838Z,0.00
2022-08-21T02:44:40.829Z,0.00
2022-08-21T02:45:40.868Z,0.00
2022-08-21T02:46:40.814Z,0.00
2022-08-21T02:47:40.803Z,0.00
2022-08-21T02:48:40.799Z,0.00
2022-08-21T02:49:40.793Z,0.00
2022-08-21T02:50:40.832Z,0.00
2022-08-21T02:51:40.777Z,0.00
2022-08-21T02:52:40.764Z,0.00
2022-08-21T02:53:40.764Z,0.00
2022-08-21T02:54:40.750Z,0.00
2022-08-21T02:55:40.774Z,0.00
2022-08-21T02:56:40.737Z,0.00
2022-08-21T02:57:40.729Z,0.00
2022-08-21T02:58:40.716Z,0.00
2022-08-21T02:59:41.746Z,0.00
2022-08-21T03:00:40.706Z,0.00
2022-08-21T03:01:40.778Z,0.00
2022-08-21T03:02:40.694Z,0.00
2022-08-21T03:03:40.686Z,0.00
2022-08-21T03:04:46.023Z,0.00
2022-08-21T03:05:42.667Z,0.00
2022-08-21T03:06:40.694Z,0.00
2022-08-21T03:07:40.659Z,0.00
2022-08-21T03:08:40.646Z,0.00
2022-08-21T03:09:45.558Z,0.00
2022-08-21T03:10:41.635Z,0.00
2022-08-21T03:11:40.646Z,0.00
2022-08-21T03:12:40.610Z,0.00
2022-08-21T03:13:40.604Z,0.00
2022-08-21T03:14:40.606Z,0.00
2022-08-21T03:15:40.593Z,0.00
2022-08-21T03:16:40.607Z,0.00
2022-08-21T03:17:40.572Z,0.00
2022-08-21T03:18:40.567Z,0.00
2022-08-21T03:19:40.559Z,0.00
2022-08-21T03:20:40.551Z,0.00
2022-08-21T03:21:40.574Z,0.00
2022-08-21T03:22:40.541Z,0.00
2022-08-21T03:23:40.535Z,0.00
2022-08-21T03:24:40.516Z,0.00
2022-08-21T03:25:41.128Z,0.00
2022-08-21T03:26:41.487Z,0.00
2022-08-21T03:27:40.493Z,0.00
2022-08-21T03:28:40.483Z,0.00
2022-08-21T03:29:40.482Z,0.00
2022-08-21T03:30:40.466Z,0.00
2022-08-21T03:31:40.495Z,0.00
2022-08-21T03:32:40.454Z,0.00
2022-08-21T03:33:40.451Z,0.00
2022-08-21T03:34:40.431Z,0.00
2022-08-21T03:35:40.436Z,0.00
2022-08-21T03:36:40.452Z,0.00
2022-08-21T03:37:40.412Z,0.00
2022-08-21T03:38:40.412Z,0.00
2022-08-21T03:39:40.434Z,0.00
2022-08-21T03:40:40.390Z,0.00
2022-08-21T03:41:40.412Z,0.00
2022-08-21T03:42:40.373Z,0.00
2022-08-21T03:43:40.369Z,0.00
2022-08-21T03:44:40.368Z,0.00
2022-08-21T03:45:40.354Z,4.00
2022-08-21T03:46:40.378Z,4.00
2022-08-21T03:47:40.342Z,0.00
2022-08-21T03:48:40.326Z,4.00
2022-08-21T03:49:40.320Z,4.00
2022-08-21T03:50:41.243Z,4.00
2022-08-21T03:51:40.329Z,8.00
2022-08-21T03:52:40.297Z,8.00
2022-08-21T03:53:40.292Z,8.00
2022-08-21T03:54:40.290Z,12.00
2022-08-21T03:55:40.272Z,12.00
2022-08-21T03:56:40.293Z,16.00
2022-08-21T03:57:40.261Z,20.00
2022-08-21T03:58:40.255Z,20.00
2022-08-21T03:59:40.243Z,24.00
2022-08-21T04:00:40.234Z,24.00
2022-08-21T04:01:40.305Z,24.00
2022-08-21T04:02:40.226Z,32.00
2022-08-21T04:03:40.210Z,32.00
2022-08-21T04:04:40.199Z,32.00
2022-08-21T04:05:40.210Z,32.00
2022-08-21T04:06:40.210Z,32.00
2022-08-21T04:07:40.181Z,36.00
2022-08-21T04:08:40.175Z,40.00
2022-08-21T04:09:40.183Z,40.00
2022-08-21T04:10:40.157Z,48.00
2022-08-21T04:11:40.173Z,52.00
2022-08-21T04:12:40.135Z,60.00
2022-08-21T04:13:44.648Z,68.00
2022-08-21T04:14:40.117Z,72.00
2022-08-21T04:15:40.113Z,80.00
2022-08-21T04:16:40.135Z,84.00
2022-08-21T04:17:40.094Z,96.00
2022-08-21T04:18:40.086Z,100.00
2022-08-21T04:19:40.084Z,104.00
2022-08-21T04:20:40.068Z,112.00
2022-08-21T04:21:40.090Z,120.00
2022-08-21T04:22:40.054Z,132.00
2022-08-21T04:23:40.045Z,140.00
2022-08-21T04:24:40.036Z,148.00
2022-08-21T04:25:40.035Z,160.00
2022-08-21T04:26:40.051Z,164.00
2022-08-21T04:27:40.017Z,176.00
2022-08-21T04:28:40.005Z,188.00
2022-08-21T04:29:40.300Z,192.00
2022-08-21T04:30:40.988Z,196.00
2022-08-21T04:31:39.984Z,204.00
2022-08-21T04:32:39.999Z,212.00
2022-08-21T04:33:39.967Z,228.00
2022-08-21T04:34:39.959Z,236.00
2022-08-21T04:35:39.945Z,248.00
2022-08-21T04:36:39.936Z,252.00
2022-08-21T04:37:41.590Z,268.00
2022-08-21T04:38:39.924Z,280.00
2022-08-21T04:39:39.996Z,300.00
2022-08-21T04:40:39.909Z,320.00
2022-08-21T04:41:39.902Z,344.00
2022-08-21T04:42:39.923Z,368.00
2022-08-21T04:43:39.883Z,392.00
2022-08-21T04:44:39.879Z,408.00
2022-08-21T04:45:39.876Z,432.00
2022-08-21T04:46:39.865Z,480.00
2022-08-21T04:47:52.330Z,528.00
2022-08-21T04:48:40.848Z,588.00
2022-08-21T04:49:39.839Z,624.00
2022-08-21T04:50:39.848Z,640.00
2022-08-21T04:51:39.823Z,628.00
2022-08-21T04:52:39.848Z,620.00
2022-08-21T04:53:39.814Z,628.00
2022-08-21T04:54:39.799Z,636.00
2022-08-21T04:55:39.796Z,672.00
2022-08-21T04:56:39.787Z,700.00
2022-08-21T04:57:48.653Z,736.00
2022-08-21T04:58:40.769Z,768.00
2022-08-21T04:59:39.761Z,792.00
2022-08-21T05:00:39.754Z,816.00
2022-08-21T05:01:39.787Z,844.00
2022-08-21T05:02:39.767Z,896.00
2022-08-21T05:03:39.728Z,928.00
2022-08-21T05:04:39.725Z,956.00
2022-08-21T05:05:39.720Z,996.00
2022-08-21T05:06:39.707Z,1024.00
2022-08-21T05:07:42.386Z,1036.00
2022-08-21T05:08:39.696Z,1068.00
2022-08-21T05:09:39.687Z,1116.00
2022-08-21T05:10:39.681Z,1152.00
2022-08-21T05:11:39.665Z,1184.00
2022-08-21T05:12:39.687Z,1224.00
2022-08-21T05:13:39.653Z,1288.00
2022-08-21T05:14:39.643Z,1332.00
2022-08-21T05:15:39.632Z,1376.00
2022-08-21T05:16:39.628Z,1448.00
2022-08-21T05:17:39.639Z,1568.00
2022-08-21T05:18:40.618Z,1724.00
2022-08-21T05:19:39.610Z,1896.00
2022-08-21T05:20:39.601Z,2156.00
2022-08-21T05:21:39.594Z,2516.00
2022-08-21T05:22:39.614Z,2608.00
2022-08-21T05:23:39.573Z,2756.00
2022-08-21T05:24:39.566Z,3016.00
2022-08-21T05:25:39.560Z,3204.00
2022-08-21T05:26:46.269Z,3276.00
2022-08-21T05:27:40.572Z,3164.00
2022-08-21T05:28:39.534Z,3028.00
2022-08-21T05:29:39.524Z,3000.00
2022-08-21T05:30:39.518Z,3108.00
2022-08-21T05:31:39.515Z,3040.00
2022-08-21T05:32:39.535Z,2928.00
2022-08-21T05:33:39.500Z,2956.00
2022-08-21T05:34:39.483Z,2852.00
2022-08-21T05:35:39.478Z,2840.00
2022-08-21T05:36:39.470Z,3016.00
2022-08-21T05:37:39.478Z,2964.00
2022-08-21T05:38:40.460Z,2844.00
2022-08-21T05:40:04.804Z,2636.00
2022-08-21T05:40:40.460Z,2396.00
2022-08-21T05:41:39.427Z,2316.00
2022-08-21T05:42:39.458Z,2340.00
2022-08-21T05:43:39.426Z,2360.00
2022-08-21T05:44:39.407Z,2368.00
2022-08-21T05:45:42.582Z,2432.00
2022-08-21T05:46:39.393Z,2408.00
2022-08-21T05:47:39.406Z,2460.00
2022-08-21T05:48:39.373Z,2544.00
2022-08-21T05:49:39.362Z,2572.00
2022-08-21T05:50:39.357Z,2740.00
2022-08-21T05:51:39.344Z,2880.00
2022-08-21T05:52:39.337Z,2972.00
2022-08-21T05:53:39.353Z,3152.00
2022-08-21T05:54:39.339Z,3328.00
2022-08-21T05:55:44.173Z,3332.00
2022-08-21T05:56:41.304Z,3188.00
2022-08-21T05:57:39.333Z,3132.00
2022-08-21T05:58:39.291Z,3200.00
2022-08-21T05:59:39.285Z,3404.00
2022-08-21T06:00:39.281Z,3568.00
2022-08-21T06:01:39.314Z,3828.00
2022-08-21T06:02:39.258Z,4072.00
2022-08-21T06:03:39.278Z,4044.00
2022-08-21T06:04:39.239Z,4312.00
2022-08-21T06:05:39.233Z,4332.00
2022-08-21T06:06:39.218Z,4272.00
2022-08-21T06:07:39.246Z,4460.00
2022-08-21T06:08:39.220Z,4400.00
2022-08-21T06:09:39.210Z,4568.00
2022-08-21T06:10:39.196Z,4912.00
2022-08-21T06:11:39.188Z,5132.00
2022-08-21T06:12:39.177Z,5156.00
2022-08-21T06:13:39.196Z,5108.00
2022-08-21T06:14:39.164Z,5420.00
2022-08-21T06:15:39.158Z,5420.00
2022-08-21T06:16:39.148Z,5792.00
2022-08-21T06:17:39.141Z,6520.00
2022-08-21T06:18:39.157Z,7176.00
2022-08-21T06:19:39.127Z,7264.00
2022-08-21T06:20:39.118Z,6972.00
2022-08-21T06:21:39.107Z,6952.00
2022-08-21T06:22:39.099Z,7080.00
2022-08-21T06:23:39.123Z,6688.00
2022-08-21T06:24:39.083Z,6416.00
2022-08-21T06:25:39.072Z,6480.00
2022-08-21T06:26:39.066Z,6216.00
2022-08-21T06:27:39.056Z,6068.00
2022-08-21T06:28:39.074Z,5776.00
2022-08-21T06:29:44.364Z,6120.00
2022-08-21T06:30:40.032Z,6504.00
2022-08-21T06:31:39.028Z,6740.00
2022-08-21T06:32:39.022Z,6708.00
2022-08-21T06:33:39.031Z,6588.00
2022-08-21T06:34:38.997Z,6224.00
2022-08-21T06:35:41.403Z,6092.00
2022-08-21T06:36:38.985Z,5940.00
2022-08-21T06:37:38.976Z,5868.00
2022-08-21T06:38:38.994Z,5996.00
2022-08-21T06:39:43.261Z,6072.00
2022-08-21T06:40:44.831Z,6252.00
2022-08-21T06:41:39.944Z,6544.00
2022-08-21T06:42:38.936Z,6512.00
2022-08-21T06:43:39.605Z,6452.00
2022-08-21T06:44:39.921Z,6632.00
2022-08-21T06:45:38.915Z,7280.00
2022-08-21T06:46:38.901Z,7516.00
2022-08-21T06:47:38.904Z,7552.00
2022-08-21T06:48:38.915Z,7656.00
2022-08-21T06:49:38.976Z,7720.00
2022-08-21T06:50:38.880Z,7556.00
2022-08-21T06:51:38.872Z,7492.00
2022-08-21T06:52:38.865Z,7252.00
2022-08-21T06:53:38.877Z,6932.00
2022-08-21T06:54:38.853Z,6588.00
2022-08-21T06:55:38.844Z,6428.00
2022-08-21T06:56:38.837Z,6620.00
2022-08-21T06:57:38.829Z,6956.00
2022-08-21T06:58:38.843Z,7336.00
2022-08-21T06:59:38.820Z,7632.00
2022-08-21T07:00:38.806Z,7776.00
2022-08-21T07:01:38.836Z,7928.00
2022-08-21T07:02:41.521Z,8288.00
2022-08-21T07:03:38.818Z,8868.00
2022-08-21T07:04:38.779Z,9468.00
2022-08-21T07:05:38.766Z,9616.00
2022-08-21T07:06:38.755Z,9300.00
2022-08-21T07:07:38.754Z,9096.00
2022-08-21T07:08:38.766Z,8348.00
2022-08-21T07:09:38.733Z,7176.00
2022-08-21T07:10:38.725Z,6288.00
2022-08-21T07:11:44.211Z,5956.00
2022-08-21T07:12:39.708Z,6580.00
2022-08-21T07:13:38.723Z,10000.00
2022-08-21T07:14:38.693Z,10760.00
2022-08-21T07:15:38.689Z,9548.00
2022-08-21T07:16:38.674Z,9360.00
2022-08-21T07:17:38.671Z,9660.00
2022-08-21T07:18:38.687Z,9908.00
2022-08-21T07:19:38.651Z,10124.00
2022-08-21T07:20:38.641Z,10384.00
2022-08-21T07:21:38.632Z,10760.00
2022-08-21T07:22:38.626Z,11508.00
2022-08-21T07:23:38.644Z,13456.00
2022-08-21T07:24:38.616Z,11904.00
2022-08-21T07:25:38.603Z,12032.00
2022-08-21T07:26:38.596Z,11728.00
2022-08-21T07:27:38.584Z,11356.00
2022-08-21T07:28:38.609Z,11412.00
2022-08-21T07:29:38.573Z,11952.00
2022-08-21T07:30:38.571Z,15360.00
2022-08-21T07:31:38.556Z,14200.00
2022-08-21T07:32:38.555Z,14536.00
2022-08-21T07:33:38.567Z,14116.00
2022-08-21T07:34:38.537Z,14296.00
2022-08-21T07:35:38.534Z,15208.00
2022-08-21T07:36:38.522Z,15808.00
2022-08-21T07:37:38.525Z,19840.00
2022-08-21T07:38:38.527Z,19936.00
2022-08-21T07:39:38.510Z,21664.00
2022-08-21T07:40:38.486Z,23296.00
2022-08-21T07:41:38.481Z,23616.00
2022-08-21T07:42:38.493Z,27456.00
2022-08-21T07:43:38.492Z,27168.00
2022-08-21T07:44:39.467Z,29664.00
2022-08-21T07:45:38.450Z,49760.00
2022-08-21T07:46:38.437Z,46880.00
2022-08-21T07:47:41.671Z,83648.00
2022-08-21T07:48:38.539Z,56832.00
2022-08-21T07:49:38.442Z,55968.00
2022-08-21T07:50:38.409Z,53216.00
2022-08-21T07:51:38.403Z,85152.00
2022-08-21T07:52:38.394Z,83808.00
2022-08-21T07:53:38.425Z,81632.00
2022-08-21T07:54:38.383Z,75808.00
2022-08-21T07:55:38.371Z,70592.00
2022-08-21T07:56:38.364Z,58720.00
2022-08-21T07:57:38.345Z,46112.00
2022-08-21T07:58:38.363Z,43360.00
2022-08-21T07:59:38.342Z,42496.00
2022-08-21T08:00:38.335Z,42816.00
2022-08-21T08:01:38.369Z,43040.00
2022-08-21T08:02:38.313Z,43328.00
2022-08-21T08:03:38.329Z,43008.00
2022-08-21T08:04:38.318Z,43424.00
2022-08-21T08:05:39.292Z,44256.00
2022-08-21T08:06:38.288Z,45344.00
2022-08-21T08:07:38.275Z,45568.00
2022-08-21T08:08:38.302Z,45504.00
2022-08-21T08:09:38.263Z,44512.00
2022-08-21T08:10:38.257Z,43200.00
2022-08-21T08:11:38.249Z,43008.00
2022-08-21T08:12:38.244Z,42720.00
2022-08-21T08:13:38.266Z,41856.00
2022-08-21T08:14:38.228Z,41088.00
2022-08-21T08:15:38.220Z,40096.00
2022-08-21T08:16:38.217Z,39968.00
2022-08-21T08:17:38.206Z,39840.00
2022-08-21T08:18:38.226Z,39424.00
2022-08-21T08:19:38.191Z,38688.00
2022-08-21T08:20:38.189Z,37728.00
2022-08-21T08:21:38.178Z,37536.00
2022-08-21T08:22:38.174Z,37504.00
2022-08-21T08:23:38.193Z,36640.00
2022-08-21T08:24:38.155Z,36192.00
2022-08-21T08:25:38.145Z,36064.00
2022-08-21T08:26:38.142Z,35744.00
2022-08-21T08:27:38.131Z,35456.00
2022-08-21T08:28:38.152Z,35104.00
2022-08-21T08:29:38.123Z,34400.00
2022-08-21T08:30:38.118Z,33664.00
2022-08-21T08:31:38.111Z,33632.00
2022-08-21T08:32:38.107Z,33952.00
2022-08-21T08:33:38.129Z,34144.00
2022-08-21T08:34:38.096Z,33760.00
2022-08-21T08:35:39.076Z,32928.00
2022-08-21T08:36:38.091Z,32896.00
2022-08-21T08:37:38.071Z,33440.00
2022-08-21T08:38:38.093Z,33824.00
2022-08-21T08:39:38.155Z,33888.00
2022-08-21T08:40:38.745Z,33216.00
2022-08-21T08:41:38.050Z,33568.00
2022-08-21T08:42:38.040Z,33600.00
2022-08-21T08:43:38.070Z,33504.00
2022-08-21T08:44:38.035Z,33920.00
2022-08-21T08:45:38.022Z,34752.00
2022-08-21T08:46:38.014Z,34816.00
2022-08-21T08:47:38.007Z,35200.00
2022-08-21T08:48:38.034Z,33888.00
2022-08-21T08:49:37.999Z,33472.00
2022-08-21T08:50:37.994Z,33888.00
2022-08-21T08:51:37.984Z,34464.00
2022-08-21T08:52:37.978Z,35360.00
2022-08-21T08:53:37.996Z,36800.00
2022-08-21T08:54:37.962Z,39584.00
2022-08-21T08:55:37.963Z,42400.00
2022-08-21T08:56:37.956Z,43872.00
2022-08-21T08:57:37.941Z,46176.00
2022-08-21T08:58:37.964Z,49024.00
2022-08-21T08:59:37.931Z,52000.00
2022-08-21T09:00:37.929Z,56320.00
2022-08-21T09:01:39.143Z,59648.00
2022-08-21T09:02:38.914Z,57344.00
2022-08-21T09:03:37.932Z,55168.00
2022-08-21T09:04:37.896Z,50560.00
2022-08-21T09:05:37.891Z,44992.00
2022-08-21T09:06:37.885Z,40224.00
2022-08-21T09:07:37.876Z,36576.00
2022-08-21T09:08:37.900Z,33376.00
2022-08-21T09:09:37.869Z,31488.00
2022-08-21T09:10:37.863Z,29728.00
2022-08-21T09:11:37.849Z,28320.00
2022-08-21T09:12:37.847Z,28224.00
2022-08-21T09:13:38.718Z,28224.00
2022-08-21T09:14:38.859Z,27680.00
2022-08-21T09:15:37.831Z,26784.00
2022-08-21T09:16:37.825Z,25408.00
2022-08-21T09:17:37.814Z,24544.00
2022-08-21T09:18:37.807Z,22592.00
2022-08-21T09:19:37.824Z,14048.00
2022-08-21T09:20:37.791Z,13680.00
2022-08-21T09:21:37.789Z,11940.00
2022-08-21T09:22:37.783Z,11216.00
2022-08-21T09:23:37.773Z,11016.00
2022-08-21T09:24:37.799Z,10892.00
2022-08-21T09:25:37.768Z,10472.00
2022-08-21T09:26:37.755Z,10084.00
2022-08-21T09:27:37.748Z,9884.00
2022-08-21T09:28:37.738Z,9740.00
2022-08-21T09:29:37.760Z,9592.00
2022-08-21T09:30:37.730Z,11480.00
2022-08-21T09:31:37.724Z,10292.00
2022-08-21T09:32:38.264Z,10376.00
2022-08-21T09:33:37.709Z,14784.00
2022-08-21T09:34:37.728Z,11624.00
2022-08-21T09:35:37.690Z,11152.00
2022-08-21T09:36:37.697Z,11248.00
2022-08-21T09:37:37.680Z,11712.00
2022-08-21T09:38:37.677Z,11656.00
2022-08-21T09:39:40.257Z,11300.00
2022-08-21T09:40:37.681Z,11212.00
2022-08-21T09:41:37.655Z,11508.00
2022-08-21T09:42:37.644Z,11612.00
2022-08-21T09:43:37.639Z,11920.00
2022-08-21T09:44:37.657Z,12412.00
2022-08-21T09:45:38.621Z,16352.00
2022-08-21T09:46:37.613Z,15164.00
2022-08-21T09:47:37.615Z,15456.00
2022-08-21T09:48:37.605Z,13708.00
2022-08-21T09:49:37.626Z,13272.00
2022-08-21T09:50:37.592Z,14888.00
2022-08-21T09:51:37.579Z,16352.00
2022-08-21T09:52:37.578Z,16416.00
2022-08-21T09:53:37.569Z,16704.00
2022-08-21T09:54:37.590Z,16960.00
2022-08-21T09:55:37.551Z,16832.00
2022-08-21T09:56:37.548Z,16448.00
2022-08-21T09:57:37.539Z,15900.00
2022-08-21T09:58:37.564Z,15800.00
2022-08-21T09:59:37.522Z,15668.00
2022-08-21T10:00:37.546Z,15488.00
2022-08-21T10:01:37.512Z,15224.00
2022-08-21T10:02:37.507Z,13944.00
2022-08-21T10:03:37.529Z,14592.00
2022-08-21T10:04:37.491Z,15200.00
2022-08-21T10:05:37.486Z,14856.00
2022-08-21T10:06:37.477Z,13264.00
2022-08-21T10:07:37.473Z,14896.00
2022-08-21T10:08:37.458Z,14548.00
2022-08-21T10:09:37.481Z,14024.00
2022-08-21T10:10:37.444Z,12448.00
2022-08-21T10:11:37.441Z,13076.00
2022-08-21T10:12:37.433Z,12016.00
2022-08-21T10:13:37.425Z,11160.00
2022-08-21T10:14:37.440Z,10688.00
2022-08-21T10:15:37.404Z,10316.00
2022-08-21T10:16:37.398Z,10104.00
2022-08-21T10:17:37.403Z,9796.00
2022-08-21T10:18:37.384Z,9264.00
2022-08-21T10:19:37.399Z,8676.00
2022-08-21T10:20:37.363Z,8280.00
2022-08-21T10:21:37.358Z,8056.00
2022-08-21T10:22:37.352Z,7840.00
2022-08-21T10:23:37.383Z,7428.00
2022-08-21T10:24:37.335Z,7028.00
2022-08-21T10:25:37.331Z,6724.00
2022-08-21T10:26:37.327Z,6576.00
2022-08-21T10:27:37.320Z,6588.00
2022-08-21T10:28:37.335Z,6632.00
2022-08-21T10:29:37.297Z,6576.00
2022-08-21T10:30:37.295Z,6608.00
2022-08-21T10:31:37.286Z,6732.00
2022-08-21T10:32:37.279Z,6976.00
2022-08-21T10:33:37.298Z,7680.00
2022-08-21T10:34:37.260Z,9116.00
2022-08-21T10:35:37.251Z,10044.00
2022-08-21T10:36:37.247Z,8700.00
2022-08-21T10:37:37.241Z,8520.00
2022-08-21T10:38:52.574Z,8572.00
2022-08-21T10:39:39.283Z,8612.00
2022-08-21T10:40:37.220Z,8492.00
2022-08-21T10:41:37.213Z,8388.00
2022-08-21T10:42:37.204Z,8400.00
2022-08-21T10:43:37.199Z,8436.00
2022-08-21T10:44:37.211Z,8304.00
2022-08-21T10:45:37.182Z,8148.00
2022-08-21T10:46:37.180Z,8136.00
2022-08-21T10:47:37.165Z,8004.00
2022-08-21T10:48:37.162Z,7932.00
2022-08-21T10:49:37.173Z,7988.00
2022-08-21T10:50:37.145Z,8136.00
2022-08-21T10:51:37.136Z,8344.00
2022-08-21T10:52:37.126Z,8464.00
2022-08-21T10:53:37.128Z,9464.00
2022-08-21T10:54:37.138Z,10596.00
2022-08-21T10:55:37.106Z,10748.00
2022-08-21T10:56:37.099Z,10804.00
2022-08-21T10:57:37.090Z,10716.00
2022-08-21T10:58:37.085Z,10560.00
2022-08-21T10:59:38.862Z,10432.00
2022-08-21T11:00:38.143Z,10292.00
2022-08-21T11:01:37.071Z,10144.00
2022-08-21T11:02:37.049Z,10028.00
2022-08-21T11:03:37.048Z,9956.00
2022-08-21T11:04:49.284Z,9912.00
2022-08-21T11:05:38.074Z,9968.00
2022-08-21T11:06:37.023Z,9944.00
2022-08-21T11:07:37.017Z,9972.00
2022-08-21T11:08:37.009Z,9924.00
2022-08-21T11:09:37.029Z,9916.00
2022-08-21T11:10:36.997Z,9892.00
2022-08-21T11:11:36.991Z,9704.00
2022-08-21T11:12:36.981Z,9720.00
2022-08-21T11:13:36.969Z,9532.00
2022-08-21T11:14:36.984Z,9580.00
2022-08-21T11:15:36.954Z,8348.00
2022-08-21T11:16:36.942Z,9712.00
2022-08-21T11:17:36.935Z,8768.00
2022-08-21T11:18:36.927Z,9404.00
2022-08-21T11:19:36.948Z,9348.00
2022-08-21T11:20:36.912Z,8660.00
2022-08-21T11:21:36.910Z,9544.00
2022-08-21T11:22:36.898Z,9556.00
2022-08-21T11:23:36.891Z,9696.00
2022-08-21T11:24:36.912Z,9720.00
2022-08-21T11:25:37.224Z,9652.00
2022-08-21T11:26:36.857Z,9540.00
2022-08-21T11:27:37.862Z,9396.00
2022-08-21T11:28:36.855Z,9332.00
2022-08-21T11:29:36.875Z,9256.00
2022-08-21T11:30:36.843Z,9272.00
2022-08-21T11:31:36.828Z,9368.00
2022-08-21T11:32:37.829Z,9460.00
2022-08-21T11:33:36.814Z,9480.00
2022-08-21T11:34:37.846Z,9588.00
2022-08-21T11:35:37.846Z,8160.00
2022-08-21T11:36:36.801Z,7232.00
2022-08-21T11:37:36.792Z,7264.00
2022-08-21T11:38:36.787Z,7400.00
2022-08-21T11:39:36.817Z,7432.00
2022-08-21T11:40:36.771Z,7508.00
2022-08-21T11:41:36.767Z,7524.00
2022-08-21T11:42:36.755Z,7576.00
2022-08-21T11:43:36.749Z,8080.00
2022-08-21T11:44:36.797Z,9584.00
2022-08-21T11:45:36.735Z,9564.00
2022-08-21T11:46:36.729Z,9672.00
2022-08-21T11:47:36.722Z,9396.00
2022-08-21T11:48:36.719Z,9548.00
2022-08-21T11:49:36.737Z,9620.00
2022-08-21T11:50:36.698Z,9736.00
2022-08-21T11:51:36.692Z,9852.00
2022-08-21T11:52:36.686Z,9764.00
2022-08-21T11:53:36.670Z,8308.00
2022-08-21T11:54:37.696Z,9692.00
2022-08-21T11:55:36.660Z,10028.00
2022-08-21T11:56:36.652Z,7952.00
2022-08-21T11:57:36.646Z,7588.00
2022-08-21T11:58:36.639Z,7364.00
2022-08-21T11:59:40.651Z,7176.00
2022-08-21T12:00:37.623Z,7044.00
2022-08-21T12:01:36.688Z,8156.00
2022-08-21T12:02:36.610Z,9228.00
2022-08-21T12:03:36.599Z,9300.00
2022-08-21T12:04:36.620Z,9392.00
2022-08-21T12:05:36.586Z,9356.00
2022-08-21T12:06:36.581Z,9284.00
2022-08-21T12:07:36.574Z,9212.00
2022-08-21T12:08:36.561Z,9120.00
2022-08-21T12:09:36.585Z,9068.00
2022-08-21T12:10:36.550Z,8956.00
2022-08-21T12:11:36.540Z,7416.00
2022-08-21T12:12:36.537Z,8956.00
2022-08-21T12:13:39.934Z,7504.00
2022-08-21T12:14:37.548Z,9416.00
2022-08-21T12:15:36.509Z,8364.00
2022-08-21T12:16:36.505Z,7064.00
2022-08-21T12:17:36.493Z,9024.00
2022-08-21T12:18:36.487Z,7352.00
2022-08-21T12:19:36.508Z,7196.00
2022-08-21T12:20:36.473Z,7040.00
2022-08-21T12:21:36.467Z,6860.00
2022-08-21T12:22:36.454Z,6768.00
2022-08-21T12:23:36.453Z,6720.00
2022-08-21T12:24:36.471Z,6844.00